sensor_id;sensor_type;location;lat;lon;timestamp;P1;durP1;ratioP1;P2;durP2;ratioP2
36497;SDS011;22513;51.222;6.480;2024-03-25T00:01:50;0.20;;;0.20;;
36497;SDS011;22513;51.222;6.480;2024-03-25T00:04:16;0.20;;;0.20;;
36497;SDS011;22513;51.222;6.480;2024-03-25T00:06:41;0.20;;;0.20;;
36497;SDS011;22513;51.222;6.480;2024-03-25T00:09:07;0.20;;;0.20;;
36497;SDS011;22513;51.222;6.480;2024-03-25T00:11:38;0.30;;;0.30;;
36497;SDS011;22513;51.222;6.480;2024-03-25T00:14:07;0.20;;;0.20;;
36497;SDS011;22513;51.222;6.480;2024-03-25T00:16:32;0.25;;;0.25;;
36497;SDS011;22513;51.222;6.480;2024-03-25T00:18:58;0.13;;;0.13;;
36497;SDS011;22513;51.222;6.480;2024-03-25T00:21:24;0.20;;;0.20;;
36497;SDS011;22513;51.222;6.480;2024-03-25T00:23:49;0.20;;;0.20;;
36497;SDS011;22513;51.222;6.480;2024-03-25T00:26:15;0.25;;;0.25;;
36497;SDS011;22513;51.222;6.480;2024-03-25T00:28:41;0.20;;;0.20;;
36497;SDS011;22513;51.222;6.480;2024-03-25T00:31:07;0.28;;;0.28;;
36497;SDS011;22513;51.222;6.480;2024-03-25T00:33:32;0.20;;;0.20;;
36497;SDS011;22513;51.222;6.480;2024-03-25T00:35:58;0.30;;;0.30;;
36497;SDS011;22513;51.222;6.480;2024-03-25T00:38:24;0.20;;;0.20;;
36497;SDS011;22513;51.222;6.480;2024-03-25T00:40:50;0.22;;;0.22;;
36497;SDS011;22513;51.222;6.480;2024-03-25T00:43:15;0.20;;;0.20;;
36497;SDS011;22513;51.222;6.480;2024-03-25T00:45:42;0.15;;;0.15;;
36497;SDS011;22513;51.222;6.480;2024-03-25T00:48:08;0.20;;;0.20;;
36497;SDS011;22513;51.222;6.480;2024-03-25T00:50:33;0.30;;;0.30;;
36497;SDS011;22513;51.222;6.480;2024-03-25T00:52:59;0.30;;;0.30;;
36497;SDS011;22513;51.222;6.480;2024-03-25T00:55:25;0.20;;;0.20;;
36497;SDS011;22513;51.222;6.480;2024-03-25T00:57:50;0.20;;;0.20;;
36497;SDS011;22513;51.222;6.480;2024-03-25T01:00:16;0.28;;;0.28;;
36497;SDS011;22513;51.222;6.480;2024-03-25T01:02:42;0.30;;;0.30;;
36497;SDS011;22513;51.222;6.480;2024-03-25T01:05:08;0.30;;;0.30;;
36497;SDS011;22513;51.222;6.480;2024-03-25T01:07:34;0.43;;;0.30;;
36497;SDS011;22513;51.222;6.480;2024-03-25T01:10:00;0.20;;;0.20;;
36497;SDS011;22513;51.222;6.480;2024-03-25T01:12:26;0.28;;;0.28;;
36497;SDS011;22513;51.222;6.480;2024-03-25T01:14:52;0.20;;;0.20;;
36497;SDS011;22513;51.222;6.480;2024-03-25T01:17:17;0.20;;;0.20;;
36497;SDS011;22513;51.222;6.480;2024-03-25T01:19:43;0.20;;;0.20;;
36497;SDS011;22513;51.222;6.480;2024-03-25T01:22:09;0.20;;;0.20;;
36497;SDS011;22513;51.222;6.480;2024-03-25T01:24:35;0.20;;;0.20;;
36497;SDS011;22513;51.222;6.480;2024-03-25T01:27:00;0.20;;;0.20;;
36497;SDS011;22513;51.222;6.480;2024-03-25T01:29:26;0.20;;;0.20;;
36497;SDS011;22513;51.222;6.480;2024-03-25T01:31:52;0.20;;;0.20;;
36497;SDS011;22513;51.222;6.480;2024-03-25T01:34:18;0.22;;;0.22;;
36497;SDS011;22513;51.222;6.480;2024-03-25T01:36:44;0.55;;;0.30;;
36497;SDS011;22513;51.222;6.480;2024-03-25T01:39:09;0.20;;;0.20;;
36497;SDS011;22513;51.222;6.480;2024-03-25T01:41:35;0.20;;;0.20;;
36497;SDS011;22513;51.222;6.480;2024-03-25T01:44:00;0.20;;;0.20;;
36497;SDS011;22513;51.222;6.480;2024-03-25T01:46:27;0.20;;;0.20;;
36497;SDS011;22513;51.222;6.480;2024-03-25T01:48:53;0.30;;;0.30;;
36497;SDS011;22513;51.222;6.480;2024-03-25T01:51:19;0.20;;;0.20;;
36497;SDS011;22513;51.222;6.480;2024-03-25T01:53:47;0.20;;;0.20;;
36497;SDS011;22513;51.222;6.480;2024-03-25T01:56:13;0.30;;;0.30;;
36497;SDS011;22513;51.222;6.480;2024-03-25T01:58:40;0.30;;;0.30;;
36497;SDS011;22513;51.222;6.480;2024-03-25T02:01:06;0.30;;;0.30;;
36497;SDS011;22513;51.222;6.480;2024-03-25T02:03:35;0.30;;;0.30;;
36497;SDS011;22513;51.222;6.480;2024-03-25T02:06:02;0.20;;;0.20;;
36497;SDS011;22513;51.222;6.480;2024-03-25T02:08:33;0.30;;;0.30;;
36497;SDS011;22513;51.222;6.480;2024-03-25T02:10:59;0.20;;;0.20;;
36497;SDS011;22513;51.222;6.480;2024-03-25T02:13:25;0.20;;;0.20;;
36497;SDS011;22513;51.222;6.480;2024-03-25T02:15:51;0.20;;;0.20;;
36497;SDS011;22513;51.222;6.480;2024-03-25T02:18:18;0.28;;;0.20;;
36497;SDS011;22513;51.222;6.480;2024-03-25T02:20:44;0.32;;;0.30;;
36497;SDS011;22513;51.222;6.480;2024-03-25T02:23:10;0.35;;;0.35;;
36497;SDS011;22513;51.222;6.480;2024-03-25T02:25:37;0.20;;;0.20;;
36497;SDS011;22513;51.222;6.480;2024-03-25T02:28:04;0.20;;;0.20;;
36497;SDS011;22513;51.222;6.480;2024-03-25T02:30:29;0.20;;;0.20;;
36497;SDS011;22513;51.222;6.480;2024-03-25T02:32:55;0.25;;;0.25;;
36497;SDS011;22513;51.222;6.480;2024-03-25T02:35:21;0.20;;;0.20;;
36497;SDS011;22513;51.222;6.480;2024-03-25T02:37:50;0.30;;;0.30;;
36497;SDS011;22513;51.222;6.480;2024-03-25T02:40:16;0.20;;;0.20;;
36497;SDS011;22513;51.222;6.480;2024-03-25T02:42:43;0.20;;;0.20;;
36497;SDS011;22513;51.222;6.480;2024-03-25T02:45:09;0.20;;;0.20;;
36497;SDS011;22513;51.222;6.480;2024-03-25T02:47:35;0.20;;;0.20;;
36497;SDS011;22513;51.222;6.480;2024-03-25T02:50:00;0.20;;;0.20;;
36497;SDS011;22513;51.222;6.480;2024-03-25T02:52:26;0.32;;;0.32;;
36497;SDS011;22513;51.222;6.480;2024-03-25T02:54:52;0.20;;;0.20;;
36497;SDS011;22513;51.222;6.480;2024-03-25T02:57:19;0.20;;;0.20;;
36497;SDS011;22513;51.222;6.480;2024-03-25T02:59:45;0.30;;;0.30;;
36497;SDS011;22513;51.222;6.480;2024-03-25T03:02:10;0.20;;;0.20;;
36497;SDS011;22513;51.222;6.480;2024-03-25T03:04:36;0.30;;;0.30;;
36497;SDS011;22513;51.222;6.480;2024-03-25T03:07:01;0.20;;;0.20;;
36497;SDS011;22513;51.222;6.480;2024-03-25T03:09:27;0.20;;;0.20;;
36497;SDS011;22513;51.222;6.480;2024-03-25T03:11:53;0.25;;;0.20;;
36497;SDS011;22513;51.222;6.480;2024-03-25T03:14:18;0.20;;;0.20;;
36497;SDS011;22513;51.222;6.480;2024-03-25T03:16:44;0.20;;;0.20;;
36497;SDS011;22513;51.222;6.480;2024-03-25T03:19:09;0.30;;;0.30;;
36497;SDS011;22513;51.222;6.480;2024-03-25T03:21:35;0.20;;;0.20;;
36497;SDS011;22513;51.222;6.480;2024-03-25T03:24:02;0.20;;;0.20;;
36497;SDS011;22513;51.222;6.480;2024-03-25T03:26:28;0.30;;;0.30;;
36497;SDS011;22513;51.222;6.480;2024-03-25T03:28:53;0.22;;;0.20;;
36497;SDS011;22513;51.222;6.480;2024-03-25T03:31:19;0.20;;;0.20;;
36497;SDS011;22513;51.222;6.480;2024-03-25T03:33:48;0.30;;;0.30;;
36497;SDS011;22513;51.222;6.480;2024-03-25T03:36:17;0.25;;;0.25;;
36497;SDS011;22513;51.222;6.480;2024-03-25T03:38:44;0.30;;;0.30;;
36497;SDS011;22513;51.222;6.480;2024-03-25T03:41:09;0.25;;;0.25;;
36497;SDS011;22513;51.222;6.480;2024-03-25T03:43:35;0.30;;;0.30;;
36497;SDS011;22513;51.222;6.480;2024-03-25T03:46:01;0.20;;;0.20;;
36497;SDS011;22513;51.222;6.480;2024-03-25T03:48:27;0.30;;;0.30;;
36497;SDS011;22513;51.222;6.480;2024-03-25T03:50:53;0.20;;;0.20;;
36497;SDS011;22513;51.222;6.480;2024-03-25T03:53:19;0.20;;;0.20;;
36497;SDS011;22513;51.222;6.480;2024-03-25T03:55:57;0.20;;;0.20;;
36497;SDS011;22513;51.222;6.480;2024-03-25T03:58:23;0.30;;;0.30;;
36497;SDS011;22513;51.222;6.480;2024-03-25T04:00:50;0.40;;;0.30;;
36497;SDS011;22513;51.222;6.480;2024-03-25T04:03:16;0.30;;;0.30;;
36497;SDS011;22513;51.222;6.480;2024-03-25T04:05:41;0.20;;;0.20;;
36497;SDS011;22513;51.222;6.480;2024-03-25T04:08:07;0.30;;;0.30;;
36497;SDS011;22513;51.222;6.480;2024-03-25T04:10:36;0.20;;;0.20;;
36497;SDS011;22513;51.222;6.480;2024-03-25T04:13:03;0.20;;;0.20;;
36497;SDS011;22513;51.222;6.480;2024-03-25T04:15:29;0.30;;;0.30;;
36497;SDS011;22513;51.222;6.480;2024-03-25T04:17:57;0.27;;;0.27;;
36497;SDS011;22513;51.222;6.480;2024-03-25T04:20:23;0.20;;;0.20;;
36497;SDS011;22513;51.222;6.480;2024-03-25T04:22:49;0.20;;;0.20;;
36497;SDS011;22513;51.222;6.480;2024-03-25T04:25:14;0.20;;;0.20;;
36497;SDS011;22513;51.222;6.480;2024-03-25T04:27:40;0.20;;;0.20;;
36497;SDS011;22513;51.222;6.480;2024-03-25T04:30:06;0.25;;;0.25;;
36497;SDS011;22513;51.222;6.480;2024-03-25T04:32:33;0.25;;;0.25;;
36497;SDS011;22513;51.222;6.480;2024-03-25T04:34:59;0.20;;;0.20;;
36497;SDS011;22513;51.222;6.480;2024-03-25T04:37:24;0.20;;;0.20;;
36497;SDS011;22513;51.222;6.480;2024-03-25T04:39:50;0.28;;;0.28;;
36497;SDS011;22513;51.222;6.480;2024-03-25T04:42:16;0.30;;;0.30;;
36497;SDS011;22513;51.222;6.480;2024-03-25T04:44:41;0.20;;;0.20;;
36497;SDS011;22513;51.222;6.480;2024-03-25T04:47:07;0.28;;;0.28;;
36497;SDS011;22513;51.222;6.480;2024-03-25T04:49:32;0.20;;;0.20;;
36497;SDS011;22513;51.222;6.480;2024-03-25T04:51:58;0.20;;;0.20;;
36497;SDS011;22513;51.222;6.480;2024-03-25T04:54:23;0.20;;;0.20;;
36497;SDS011;22513;51.222;6.480;2024-03-25T04:56:49;0.20;;;0.20;;
36497;SDS011;22513;51.222;6.480;2024-03-25T04:59:14;0.20;;;0.20;;
36497;SDS011;22513;51.222;6.480;2024-03-25T05:01:40;0.20;;;0.20;;
36497;SDS011;22513;51.222;6.480;2024-03-25T05:04:05;0.30;;;0.30;;
36497;SDS011;22513;51.222;6.480;2024-03-25T05:06:34;0.20;;;0.20;;
36497;SDS011;22513;51.222;6.480;2024-03-25T05:09:00;0.20;;;0.20;;
36497;SDS011;22513;51.222;6.480;2024-03-25T05:11:25;0.35;;;0.30;;
36497;SDS011;22513;51.222;6.480;2024-03-25T05:13:51;0.20;;;0.20;;
36497;SDS011;22513;51.222;6.480;2024-03-25T05:16:17;0.40;;;0.40;;
36497;SDS011;22513;51.222;6.480;2024-03-25T05:18:42;0.50;;;0.50;;
36497;SDS011;22513;51.222;6.480;2024-03-25T05:21:08;0.40;;;0.40;;
36497;SDS011;22513;51.222;6.480;2024-03-25T05:23:33;0.63;;;0.50;;
36497;SDS011;22513;51.222;6.480;2024-03-25T05:25:59;0.30;;;0.30;;
36497;SDS011;22513;51.222;6.480;2024-03-25T05:28:25;0.68;;;0.50;;
36497;SDS011;22513;51.222;6.480;2024-03-25T05:30:51;0.30;;;0.30;;
36497;SDS011;22513;51.222;6.480;2024-03-25T05:33:16;0.30;;;0.30;;
36497;SDS011;22513;51.222;6.480;2024-03-25T05:35:42;0.47;;;0.40;;
36497;SDS011;22513;51.222;6.480;2024-03-25T05:38:07;0.30;;;0.30;;
36497;SDS011;22513;51.222;6.480;2024-03-25T05:40:33;0.40;;;0.40;;
36497;SDS011;22513;51.222;6.480;2024-03-25T05:42:59;0.40;;;0.40;;
36497;SDS011;22513;51.222;6.480;2024-03-25T05:45:24;0.50;;;0.32;;
36497;SDS011;22513;51.222;6.480;2024-03-25T05:47:50;0.50;;;0.50;;
36497;SDS011;22513;51.222;6.480;2024-03-25T05:50:17;0.52;;;0.50;;
36497;SDS011;22513;51.222;6.480;2024-03-25T05:52:42;0.50;;;0.50;;
36497;SDS011;22513;51.222;6.480;2024-03-25T05:55:08;0.40;;;0.40;;
36497;SDS011;22513;51.222;6.480;2024-03-25T05:57:36;0.63;;;0.45;;
36497;SDS011;22513;51.222;6.480;2024-03-25T06:00:02;0.40;;;0.40;;
36497;SDS011;22513;51.222;6.480;2024-03-25T06:02:28;0.50;;;0.50;;
36497;SDS011;22513;51.222;6.480;2024-03-25T06:04:55;0.38;;;0.38;;
36497;SDS011;22513;51.222;6.480;2024-03-25T06:07:21;0.40;;;0.40;;
36497;SDS011;22513;51.222;6.480;2024-03-25T06:09:47;0.40;;;0.40;;
36497;SDS011;22513;51.222;6.480;2024-03-25T06:12:13;0.40;;;0.40;;
36497;SDS011;22513;51.222;6.480;2024-03-25T06:14:39;0.38;;;0.38;;
36497;SDS011;22513;51.222;6.480;2024-03-25T06:17:04;0.30;;;0.30;;
36497;SDS011;22513;51.222;6.480;2024-03-25T06:19:30;0.25;;;0.25;;
36497;SDS011;22513;51.222;6.480;2024-03-25T06:21:56;0.47;;;0.47;;
36497;SDS011;22513;51.222;6.480;2024-03-25T06:24:21;0.50;;;0.50;;
36497;SDS011;22513;51.222;6.480;2024-03-25T06:26:47;0.47;;;0.40;;
36497;SDS011;22513;51.222;6.480;2024-03-25T06:29:13;0.30;;;0.30;;
36497;SDS011;22513;51.222;6.480;2024-03-25T06:31:38;0.28;;;0.28;;
36497;SDS011;22513;51.222;6.480;2024-03-25T06:34:22;0.40;;;0.40;;
36497;SDS011;22513;51.222;6.480;2024-03-25T06:36:48;0.30;;;0.30;;
36497;SDS011;22513;51.222;6.480;2024-03-25T06:39:17;0.30;;;0.30;;
36497;SDS011;22513;51.222;6.480;2024-03-25T06:44:09;0.40;;;0.40;;
36497;SDS011;22513;51.222;6.480;2024-03-25T06:46:34;0.30;;;0.30;;
36497;SDS011;22513;51.222;6.480;2024-03-25T06:49:00;0.40;;;0.40;;
36497;SDS011;22513;51.222;6.480;2024-03-25T06:51:25;0.30;;;0.30;;
36497;SDS011;22513;51.222;6.480;2024-03-25T06:53:51;0.50;;;0.50;;
36497;SDS011;22513;51.222;6.480;2024-03-25T06:56:17;0.40;;;0.40;;
36497;SDS011;22513;51.222;6.480;2024-03-25T06:58:43;0.55;;;0.40;;
36497;SDS011;22513;51.222;6.480;2024-03-25T07:01:09;0.30;;;0.30;;
36497;SDS011;22513;51.222;6.480;2024-03-25T07:03:37;0.50;;;0.50;;
36497;SDS011;22513;51.222;6.480;2024-03-25T07:06:03;0.30;;;0.30;;
36497;SDS011;22513;51.222;6.480;2024-03-25T07:08:30;0.40;;;0.40;;
36497;SDS011;22513;51.222;6.480;2024-03-25T07:10:56;0.30;;;0.30;;
36497;SDS011;22513;51.222;6.480;2024-03-25T07:13:22;0.50;;;0.40;;
36497;SDS011;22513;51.222;6.480;2024-03-25T07:15:48;0.30;;;0.30;;
36497;SDS011;22513;51.222;6.480;2024-03-25T07:18:14;0.40;;;0.40;;
36497;SDS011;22513;51.222;6.480;2024-03-25T07:20:40;0.40;;;0.40;;
36497;SDS011;22513;51.222;6.480;2024-03-25T07:23:06;0.28;;;0.28;;
36497;SDS011;22513;51.222;6.480;2024-03-25T07:25:31;0.38;;;0.38;;
36497;SDS011;22513;51.222;6.480;2024-03-25T07:27:57;0.30;;;0.30;;
36497;SDS011;22513;51.222;6.480;2024-03-25T07:30:23;0.57;;;0.57;;
36497;SDS011;22513;51.222;6.480;2024-03-25T07:32:55;0.40;;;0.40;;
36497;SDS011;22513;51.222;6.480;2024-03-25T07:35:21;0.30;;;0.30;;
36497;SDS011;22513;51.222;6.480;2024-03-25T07:37:47;0.40;;;0.40;;
36497;SDS011;22513;51.222;6.480;2024-03-25T07:40:16;0.40;;;0.40;;
36497;SDS011;22513;51.222;6.480;2024-03-25T07:42:45;0.55;;;0.50;;
36497;SDS011;22513;51.222;6.480;2024-03-25T07:45:11;0.40;;;0.40;;
36497;SDS011;22513;51.222;6.480;2024-03-25T07:47:36;0.47;;;0.47;;
36497;SDS011;22513;51.222;6.480;2024-03-25T07:50:02;0.95;;;0.50;;
36497;SDS011;22513;51.222;6.480;2024-03-25T07:52:28;0.40;;;0.40;;
36497;SDS011;22513;51.222;6.480;2024-03-25T07:54:54;0.35;;;0.35;;
36497;SDS011;22513;51.222;6.480;2024-03-25T07:57:20;0.40;;;0.40;;
36497;SDS011;22513;51.222;6.480;2024-03-25T07:59:46;0.52;;;0.52;;
36497;SDS011;22513;51.222;6.480;2024-03-25T08:02:12;0.88;;;0.85;;
36497;SDS011;22513;51.222;6.480;2024-03-25T08:04:38;0.75;;;0.40;;
36497;SDS011;22513;51.222;6.480;2024-03-25T08:07:04;0.60;;;0.60;;
36497;SDS011;22513;51.222;6.480;2024-03-25T08:09:30;0.50;;;0.50;;
36497;SDS011;22513;51.222;6.480;2024-03-25T08:11:55;1.80;;;0.50;;
36497;SDS011;22513;51.222;6.480;2024-03-25T08:14:21;0.30;;;0.30;;
36497;SDS011;22513;51.222;6.480;2024-03-25T08:16:47;0.40;;;0.40;;
36497;SDS011;22513;51.222;6.480;2024-03-25T08:19:13;1.38;;;0.45;;
36497;SDS011;22513;51.222;6.480;2024-03-25T08:21:38;0.60;;;0.60;;
36497;SDS011;22513;51.222;6.480;2024-03-25T08:26:29;0.60;;;0.60;;
36497;SDS011;22513;51.222;6.480;2024-03-25T08:28:55;0.55;;;0.55;;
36497;SDS011;22513;51.222;6.480;2024-03-25T08:31:20;0.47;;;0.47;;
36497;SDS011;22513;51.222;6.480;2024-03-25T08:33:46;0.80;;;0.80;;
36497;SDS011;22513;51.222;6.480;2024-03-25T08:36:12;1.13;;;0.70;;
36497;SDS011;22513;51.222;6.480;2024-03-25T08:38:37;0.70;;;0.70;;
36497;SDS011;22513;51.222;6.480;2024-03-25T08:41:03;0.68;;;0.68;;
36497;SDS011;22513;51.222;6.480;2024-03-25T08:43:29;0.60;;;0.60;;
36497;SDS011;22513;51.222;6.480;2024-03-25T08:45:54;0.93;;;0.80;;
36497;SDS011;22513;51.222;6.480;2024-03-25T08:48:20;1.40;;;0.85;;
36497;SDS011;22513;51.222;6.480;2024-03-25T08:50:46;0.93;;;0.80;;
36497;SDS011;22513;51.222;6.480;2024-03-25T08:53:12;1.02;;;0.90;;
36497;SDS011;22513;51.222;6.480;2024-03-25T08:55:37;0.80;;;0.80;;
36497;SDS011;22513;51.222;6.480;2024-03-25T08:58:03;0.95;;;0.85;;
36497;SDS011;22513;51.222;6.480;2024-03-25T09:00:29;0.85;;;0.70;;
36497;SDS011;22513;51.222;6.480;2024-03-25T09:02:55;0.70;;;0.60;;
36497;SDS011;22513;51.222;6.480;2024-03-25T09:05:21;0.50;;;0.50;;
36497;SDS011;22513;51.222;6.480;2024-03-25T09:07:50;1.27;;;0.95;;
36497;SDS011;22513;51.222;6.480;2024-03-25T09:10:17;0.80;;;0.80;;
36497;SDS011;22513;51.222;6.480;2024-03-25T09:13:01;0.80;;;0.80;;
36497;SDS011;22513;51.222;6.480;2024-03-25T09:15:28;0.88;;;0.77;;
36497;SDS011;22513;51.222;6.480;2024-03-25T09:17:54;0.77;;;0.77;;
36497;SDS011;22513;51.222;6.480;2024-03-25T09:20:19;0.70;;;0.70;;
36497;SDS011;22513;51.222;6.480;2024-03-25T09:22:49;0.40;;;0.40;;
36497;SDS011;22513;51.222;6.480;2024-03-25T09:25:15;0.57;;;0.57;;
36497;SDS011;22513;51.222;6.480;2024-03-25T09:27:40;0.57;;;0.50;;
36497;SDS011;22513;51.222;6.480;2024-03-25T09:30:10;0.50;;;0.50;;
36497;SDS011;22513;51.222;6.480;2024-03-25T09:32:36;0.60;;;0.60;;
36497;SDS011;22513;51.222;6.480;2024-03-25T09:35:02;0.50;;;0.50;;
36497;SDS011;22513;51.222;6.480;2024-03-25T09:37:28;0.68;;;0.68;;
36497;SDS011;22513;51.222;6.480;2024-03-25T09:39:54;0.80;;;0.68;;
36497;SDS011;22513;51.222;6.480;2024-03-25T09:42:24;0.70;;;0.70;;
36497;SDS011;22513;51.222;6.480;2024-03-25T09:44:51;0.77;;;0.60;;
36497;SDS011;22513;51.222;6.480;2024-03-25T09:47:20;0.70;;;0.70;;
36497;SDS011;22513;51.222;6.480;2024-03-25T09:49:49;0.88;;;0.80;;
36497;SDS011;22513;51.222;6.480;2024-03-25T09:52:16;0.50;;;0.50;;
36497;SDS011;22513;51.222;6.480;2024-03-25T09:54:41;0.50;;;0.50;;
36497;SDS011;22513;51.222;6.480;2024-03-25T09:57:07;0.52;;;0.52;;
36497;SDS011;22513;51.222;6.480;2024-03-25T09:59:34;0.70;;;0.60;;
36497;SDS011;22513;51.222;6.480;2024-03-25T10:01:59;0.55;;;0.55;;
36497;SDS011;22513;51.222;6.480;2024-03-25T10:04:26;0.60;;;0.60;;
36497;SDS011;22513;51.222;6.480;2024-03-25T10:06:52;0.60;;;0.60;;
36497;SDS011;22513;51.222;6.480;2024-03-25T10:09:21;0.73;;;0.60;;
36497;SDS011;22513;51.222;6.480;2024-03-25T10:11:48;0.80;;;0.80;;
36497;SDS011;22513;51.222;6.480;2024-03-25T10:14:17;0.52;;;0.52;;
36497;SDS011;22513;51.222;6.480;2024-03-25T10:16:44;0.70;;;0.70;;
36497;SDS011;22513;51.222;6.480;2024-03-25T10:19:09;0.60;;;0.50;;
36497;SDS011;22513;51.222;6.480;2024-03-25T10:21:35;0.50;;;0.50;;
36497;SDS011;22513;51.222;6.480;2024-03-25T10:24:01;0.47;;;0.47;;
36497;SDS011;22513;51.222;6.480;2024-03-25T10:26:30;0.73;;;0.70;;
36497;SDS011;22513;51.222;6.480;2024-03-25T10:29:04;0.40;;;0.40;;
36497;SDS011;22513;51.222;6.480;2024-03-25T10:31:31;0.50;;;0.50;;
36497;SDS011;22513;51.222;6.480;2024-03-25T10:33:57;0.60;;;0.60;;
36497;SDS011;22513;51.222;6.480;2024-03-25T10:36:23;0.47;;;0.47;;
36497;SDS011;22513;51.222;6.480;2024-03-25T10:38:52;0.50;;;0.50;;
36497;SDS011;22513;51.222;6.480;2024-03-25T10:41:19;0.47;;;0.47;;
36497;SDS011;22513;51.222;6.480;2024-03-25T10:43:46;0.60;;;0.47;;
36497;SDS011;22513;51.222;6.480;2024-03-25T10:46:17;0.43;;;0.40;;
36497;SDS011;22513;51.222;6.480;2024-03-25T10:48:47;0.50;;;0.50;;
36497;SDS011;22513;51.222;6.480;2024-03-25T10:51:26;0.90;;;0.60;;
36497;SDS011;22513;51.222;6.480;2024-03-25T10:53:53;0.63;;;0.60;;
36497;SDS011;22513;51.222;6.480;2024-03-25T10:56:23;0.75;;;0.60;;
36497;SDS011;22513;51.222;6.480;2024-03-25T10:58:49;0.57;;;0.57;;
36497;SDS011;22513;51.222;6.480;2024-03-25T11:01:17;0.40;;;0.40;;
36497;SDS011;22513;51.222;6.480;2024-03-25T11:03:45;0.55;;;0.50;;
36497;SDS011;22513;51.222;6.480;2024-03-25T11:06:14;0.50;;;0.50;;
36497;SDS011;22513;51.222;6.480;2024-03-25T11:08:41;0.75;;;0.55;;
36497;SDS011;22513;51.222;6.480;2024-03-25T11:11:11;0.50;;;0.50;;
36497;SDS011;22513;51.222;6.480;2024-03-25T11:13:38;0.65;;;0.65;;
36497;SDS011;22513;51.222;6.480;2024-03-25T11:16:04;0.60;;;0.60;;
36497;SDS011;22513;51.222;6.480;2024-03-25T11:18:32;0.63;;;0.50;;
36497;SDS011;22513;51.222;6.480;2024-03-25T11:21:05;0.35;;;0.35;;
36497;SDS011;22513;51.222;6.480;2024-03-25T11:23:35;0.57;;;0.50;;
36497;SDS011;22513;51.222;6.480;2024-03-25T11:26:20;0.40;;;0.40;;
36497;SDS011;22513;51.222;6.480;2024-03-25T11:31:13;0.55;;;0.55;;
36497;SDS011;22513;51.222;6.480;2024-03-25T11:33:40;0.40;;;0.40;;
36497;SDS011;22513;51.222;6.480;2024-03-25T11:36:06;0.40;;;0.40;;
36497;SDS011;22513;51.222;6.480;2024-03-25T11:38:32;0.40;;;0.40;;
36497;SDS011;22513;51.222;6.480;2024-03-25T11:40:58;0.40;;;0.40;;
36497;SDS011;22513;51.222;6.480;2024-03-25T11:43:25;0.40;;;0.40;;
36497;SDS011;22513;51.222;6.480;2024-03-25T11:45:50;0.40;;;0.40;;
36497;SDS011;22513;51.222;6.480;2024-03-25T11:48:18;0.40;;;0.40;;
36497;SDS011;22513;51.222;6.480;2024-03-25T11:50:47;0.28;;;0.28;;
36497;SDS011;22513;51.222;6.480;2024-03-25T11:53:13;0.40;;;0.40;;
36497;SDS011;22513;51.222;6.480;2024-03-25T11:55:48;0.40;;;0.40;;
36497;SDS011;22513;51.222;6.480;2024-03-25T11:58:14;0.50;;;0.50;;
36497;SDS011;22513;51.222;6.480;2024-03-25T12:00:44;0.40;;;0.40;;
36497;SDS011;22513;51.222;6.480;2024-03-25T12:03:10;0.30;;;0.30;;
36497;SDS011;22513;51.222;6.480;2024-03-25T12:05:40;0.30;;;0.30;;
36497;SDS011;22513;51.222;6.480;2024-03-25T12:08:09;0.30;;;0.30;;
36497;SDS011;22513;51.222;6.480;2024-03-25T12:10:38;0.40;;;0.40;;
36497;SDS011;22513;51.222;6.480;2024-03-25T12:13:22;0.30;;;0.30;;
36497;SDS011;22513;51.222;6.480;2024-03-25T12:15:50;0.40;;;0.40;;
36497;SDS011;22513;51.222;6.480;2024-03-25T12:18:16;0.50;;;0.50;;
36497;SDS011;22513;51.222;6.480;2024-03-25T12:20:42;0.40;;;0.40;;
36497;SDS011;22513;51.222;6.480;2024-03-25T12:23:10;0.40;;;0.40;;
36497;SDS011;22513;51.222;6.480;2024-03-25T12:25:35;0.35;;;0.35;;
36497;SDS011;22513;51.222;6.480;2024-03-25T12:28:01;0.40;;;0.40;;
36497;SDS011;22513;51.222;6.480;2024-03-25T12:30:27;0.38;;;0.38;;
36497;SDS011;22513;51.222;6.480;2024-03-25T12:32:52;0.40;;;0.40;;
36497;SDS011;22513;51.222;6.480;2024-03-25T12:35:20;0.68;;;0.45;;
36497;SDS011;22513;51.222;6.480;2024-03-25T12:37:46;0.50;;;0.50;;
36497;SDS011;22513;51.222;6.480;2024-03-25T12:40:25;0.38;;;0.38;;
36497;SDS011;22513;51.222;6.480;2024-03-25T12:42:52;0.45;;;0.40;;
36497;SDS011;22513;51.222;6.480;2024-03-25T12:45:20;0.40;;;0.40;;
36497;SDS011;22513;51.222;6.480;2024-03-25T12:47:46;0.40;;;0.40;;
36497;SDS011;22513;51.222;6.480;2024-03-25T12:50:11;0.40;;;0.40;;
36497;SDS011;22513;51.222;6.480;2024-03-25T12:52:37;0.30;;;0.30;;
36497;SDS011;22513;51.222;6.480;2024-03-25T12:55:03;0.30;;;0.30;;
36497;SDS011;22513;51.222;6.480;2024-03-25T12:57:29;0.70;;;0.40;;
36497;SDS011;22513;51.222;6.480;2024-03-25T12:59:54;0.30;;;0.30;;
36497;SDS011;22513;51.222;6.480;2024-03-25T13:02:20;0.38;;;0.38;;
36497;SDS011;22513;51.222;6.480;2024-03-25T13:04:45;0.40;;;0.40;;
36497;SDS011;22513;51.222;6.480;2024-03-25T13:07:11;0.30;;;0.30;;
36497;SDS011;22513;51.222;6.480;2024-03-25T13:09:37;0.32;;;0.32;;
36497;SDS011;22513;51.222;6.480;2024-03-25T13:12:03;0.30;;;0.30;;
36497;SDS011;22513;51.222;6.480;2024-03-25T13:14:29;0.22;;;0.22;;
36497;SDS011;22513;51.222;6.480;2024-03-25T13:16:55;0.40;;;0.40;;
36497;SDS011;22513;51.222;6.480;2024-03-25T13:19:20;0.30;;;0.30;;
36497;SDS011;22513;51.222;6.480;2024-03-25T13:21:46;0.30;;;0.30;;
36497;SDS011;22513;51.222;6.480;2024-03-25T13:24:12;0.30;;;0.30;;
36497;SDS011;22513;51.222;6.480;2024-03-25T13:26:39;0.30;;;0.30;;
36497;SDS011;22513;51.222;6.480;2024-03-25T13:29:04;0.30;;;0.30;;
36497;SDS011;22513;51.222;6.480;2024-03-25T13:31:32;0.35;;;0.35;;
36497;SDS011;22513;51.222;6.480;2024-03-25T13:33:58;0.65;;;0.30;;
36497;SDS011;22513;51.222;6.480;2024-03-25T13:36:24;0.40;;;0.40;;
36497;SDS011;22513;51.222;6.480;2024-03-25T13:38:50;0.32;;;0.32;;
36497;SDS011;22513;51.222;6.480;2024-03-25T13:41:15;0.40;;;0.40;;
36497;SDS011;22513;51.222;6.480;2024-03-25T13:43:44;0.40;;;0.40;;
36497;SDS011;22513;51.222;6.480;2024-03-25T13:46:10;0.30;;;0.30;;
36497;SDS011;22513;51.222;6.480;2024-03-25T13:48:37;0.30;;;0.30;;
36497;SDS011;22513;51.222;6.480;2024-03-25T13:51:03;0.30;;;0.30;;
36497;SDS011;22513;51.222;6.480;2024-03-25T13:53:29;0.32;;;0.32;;
36497;SDS011;22513;51.222;6.480;2024-03-25T13:55:54;0.30;;;0.30;;
36497;SDS011;22513;51.222;6.480;2024-03-25T13:58:20;0.40;;;0.40;;
36497;SDS011;22513;51.222;6.480;2024-03-25T14:00:45;0.30;;;0.30;;
36497;SDS011;22513;51.222;6.480;2024-03-25T14:03:11;0.20;;;0.20;;
36497;SDS011;22513;51.222;6.480;2024-03-25T14:05:37;0.30;;;0.30;;
36497;SDS011;22513;51.222;6.480;2024-03-25T14:08:02;0.38;;;0.38;;
36497;SDS011;22513;51.222;6.480;2024-03-25T14:10:28;0.20;;;0.20;;
36497;SDS011;22513;51.222;6.480;2024-03-25T14:12:55;0.40;;;0.40;;
36497;SDS011;22513;51.222;6.480;2024-03-25T14:15:20;0.20;;;0.20;;
36497;SDS011;22513;51.222;6.480;2024-03-25T14:17:46;0.30;;;0.30;;
36497;SDS011;22513;51.222;6.480;2024-03-25T14:20:12;0.25;;;0.25;;
36497;SDS011;22513;51.222;6.480;2024-03-25T14:22:37;0.28;;;0.28;;
36497;SDS011;22513;51.222;6.480;2024-03-25T14:25:03;0.20;;;0.20;;
36497;SDS011;22513;51.222;6.480;2024-03-25T14:27:29;0.28;;;0.28;;
36497;SDS011;22513;51.222;6.480;2024-03-25T14:29:54;0.45;;;0.40;;
36497;SDS011;22513;51.222;6.480;2024-03-25T14:32:20;0.30;;;0.30;;
36497;SDS011;22513;51.222;6.480;2024-03-25T14:34:47;0.20;;;0.20;;
36497;SDS011;22513;51.222;6.480;2024-03-25T14:37:13;0.30;;;0.30;;
36497;SDS011;22513;51.222;6.480;2024-03-25T14:39:39;0.30;;;0.30;;
36497;SDS011;22513;51.222;6.480;2024-03-25T14:42:07;0.28;;;0.28;;
36497;SDS011;22513;51.222;6.480;2024-03-25T14:44:34;0.30;;;0.30;;
36497;SDS011;22513;51.222;6.480;2024-03-25T14:47:03;0.30;;;0.30;;
36497;SDS011;22513;51.222;6.480;2024-03-25T14:49:29;0.35;;;0.35;;
36497;SDS011;22513;51.222;6.480;2024-03-25T14:51:55;0.30;;;0.30;;